METAR = EDDE 041520Z 06005KT 020V130 CAVOK 10/M01 Q1025 NOSIG

TAF = TAF EDDE 041100Z 0412/0512 VRB03KT 9999 FEW040 BECMG 0414/0417 09005KT BECMG 0421/0424 16005KT BECMG 0507/0510 12010KT

METAR EDDE Decoded:

STATION........ EDDE
OBSERVED....... Sat Apr 4, 17:20 MEST
NOW............ Sat Apr 4, 17:45 MEST
AGE............ 25 min ago
WIND........... ENE at 9 km/h
VISIBILITY..... more than 10 km
CLOUDS......... clear skies
TEMP........... 50°F (10°C)
WIND CHILL..... 46°F (8°C)
DEWPT.......... 30°F (-1°C)
HUMIDITY....... 47%
BAROMETER...... 1025 hPa (30.27 in Hg)


ICAO-Code: